Altonah, Utah
Current Conditions -  °F | °C
As of 1:53 AM on Sunday 26 Oct 2014 (Local Time) from KVEL Reporting Station
Clear Clear  
Wind Chill: 41°   Ceiling: Unl
Heat Index: 44°   Visibility: 10mi
Dew Point: 34°   Wind: 6mph
Humidity: 68%   Direction: 290°WNW
Pressure: 29.99"   Gusts: NA
Location:  40.4°N, 110.29°W
Report Text: KVEL 260753Z AUTO 29005KT 10SM CLR 07/01 A2999 RMK AO2 SLP118 T00670011
Loading
Personal Weather Stations






























Interactive Weather Map
Tropical Storm Tracking
New forecast layout! Learn more

10-Day Weather Forecast

Advertisements
Track Severe Weather on mobile